Scm Elpida — V2OI1 — position and weather

sailwx.info

Track history (hours):
 
Tides and Currents Weather Stations Pressure Air Temp Water Temp Dewpoint Dewpoint Depression Visibility Wind Speed Wind Dir Waves Ship Positions

Scm Elpida

Last reported at 2018-Apr-14 08:12 UTC. Time now 2018-May-27 03:32 UTC.
Position N 25°33' W 079°37'.
Warning: this ship's position is 42 days out of date.

Length 108 m; draft 5 m.

Type: Cargo ship. MMSI: 304188000.

Date/timePositionNaut miles runAvg speedWind from/ knotsBaromVisibWave heightAir tempDewpointWater temp
2018-Apr-14 08:12N 25°33' W 079°37'2 8.3
2018-Apr-14 08:00N 25°35' W 079°37'4 8.2
2018-Apr-14 07:31N 25°39' W 079°38'4 8.1
2018-Apr-14 07:00N 25°43' W 079°39'4 8.1
2018-Apr-14 06:31N 25°47' W 079°40'4 8.0
2018-Apr-14 06:00N 25°51' W 079°42'4 8.8
2018-Apr-14 05:31N 25°53' W 079°45'4 8.9
2018-Apr-14 05:00N 25°56' W 079°49'5 9.3
2018-Apr-14 04:30N 25°59' W 079°54'510.3
2018-Apr-14 03:59N 26°01' W 079°59'510.7
2018-Apr-14 03:31N 26°04' W 080°04'3 6.4
2018-Apr-14 02:59N 26°05' W 080°07'0 0.1
2018-Apr-14 02:29N 26°05' W 080°07'0 0.0
2018-Apr-14 01:59N 26°05' W 080°07'0 0.0
2018-Apr-14 01:29N 26°05' W 080°07'0 0.0
2018-Apr-14 00:59N 26°05' W 080°07'0 0.0
2018-Apr-14 00:29N 26°05' W 080°07'0 0.0
2018-Apr-13 23:59N 26°05' W 080°07'0 0.0
2018-Apr-13 23:29N 26°05' W 080°07'0 0.0
2018-Apr-13 22:59N 26°05' W 080°07'0 0.0
2018-Apr-13 22:29N 26°05' W 080°07'0 0.0
2018-Apr-13 21:59N 26°05' W 080°07'0 0.0
2018-Apr-13 21:29N 26°05' W 080°07'0 0.0
2018-Apr-13 20:59N 26°05' W 080°07'0 0.0
2018-Apr-13 20:29N 26°05' W 080°07'0 0.0
2018-Apr-13 19:59N 26°05' W 080°07'0 0.0
2018-Apr-13 19:29N 26°05' W 080°07'0 0.0
2018-Apr-13 18:59N 26°05' W 080°07'0 0.0
2018-Apr-13 18:29N 26°05' W 080°07'0 0.0
2018-Apr-13 17:59N 26°05' W 080°07'0 0.0
2018-Apr-13 17:29N 26°05' W 080°07'0 0.0
2018-Apr-13 16:59N 26°05' W 080°07'0 0.0
2018-Apr-13 16:29N 26°05' W 080°07'0 0.0
2018-Apr-13 15:59N 26°05' W 080°07'0 0.0
2018-Apr-13 15:29N 26°05' W 080°07'0 0.0
2018-Apr-13 14:59N 26°05' W 080°07'0 0.0
2018-Apr-13 14:29N 26°05' W 080°07'0 0.0
2018-Apr-13 13:59N 26°05' W 080°07'0 0.0
2018-Apr-13 13:29N 26°05' W 080°07'0 0.5
2018-Apr-13 13:00N 26°05' W 080°07'3 6.9
2018-Apr-13 12:30N 26°06' W 080°03'2 3.8
2018-Apr-13 12:00N 26°08' W 080°04'1 2.1
2018-Apr-13 11:30N 26°08' W 080°05'0 0.0
2018-Apr-13 11:00N 26°08' W 080°05'0 0.0
2018-Apr-13 10:30N 26°08' W 080°05'0 0.0
2018-Apr-13 10:00N 26°08' W 080°05'0 0.1
2018-Apr-13 09:30N 26°08' W 080°05'0 0.0
2018-Apr-13 09:00N 26°08' W 080°05'0 0.0
2018-Apr-13 08:30N 26°08' W 080°05'0 0.1
2018-Apr-13 08:00N 26°08' W 080°05'0 0.0
2018-Apr-13 07:30N 26°08' W 080°05'0 0.0
2018-Apr-13 07:00N 26°08' W 080°05'0 0.0
2018-Apr-13 06:30N 26°08' W 080°05'0 0.0
2018-Apr-13 06:00N 26°08' W 080°05'0 0.0
2018-Apr-13 05:30N 26°08' W 080°05'0 0.0
2018-Apr-13 05:00N 26°08' W 080°05'0 0.0
2018-Apr-13 04:30N 26°08' W 080°05'0 0.0
2018-Apr-13 04:00N 26°08' W 080°05'0 0.0
2018-Apr-13 03:30N 26°08' W 080°05'0 0.0
2018-Apr-13 03:00N 26°08' W 080°05'0 0.0
2018-Apr-13 02:30N 26°08' W 080°05'0 0.0
2018-Apr-13 02:00N 26°08' W 080°05'0 0.0
2018-Apr-13 01:30N 26°08' W 080°05'0 0.0
2018-Apr-13 01:00N 26°08' W 080°05'0 0.0
2018-Apr-13 00:30N 26°08' W 080°05'0 0.1
2018-Apr-13 00:00N 26°08' W 080°05'0 0.0
2018-Apr-12 23:30N 26°08' W 080°05'0 0.1
2018-Apr-12 23:00N 26°08' W 080°05'0 0.0
2018-Apr-12 22:30N 26°08' W 080°05'0 0.0
2018-Apr-12 22:00N 26°08' W 080°05'0 0.0
2018-Apr-12 21:30N 26°08' W 080°05'0 0.0
2018-Apr-12 21:00N 26°08' W 080°05'0 0.1
2018-Apr-12 20:30N 26°08' W 080°05'0 0.0
2018-Apr-12 20:00N 26°08' W 080°05'0 0.0
2018-Apr-12 19:30N 26°08' W 080°05'0 0.0
2018-Apr-12 19:00N 26°08' W 080°05'0 0.0
2018-Apr-12 18:30N 26°08' W 080°05'0 0.0
2018-Apr-12 18:00N 26°08' W 080°05'0 0.0
2018-Apr-12 17:30N 26°08' W 080°05'0 0.0
2018-Apr-12 17:00N 26°08' W 080°05'0 0.0
2018-Apr-12 16:30N 26°08' W 080°05'0 0.0
2018-Apr-12 16:00N 26°08' W 080°05'0 0.0
2018-Apr-12 15:30N 26°08' W 080°05'0 0.0
2018-Apr-12 15:00N 26°08' W 080°05'0 0.0
2018-Apr-12 14:30N 26°08' W 080°05'0 0.0
2018-Apr-12 14:00N 26°08' W 080°05'0 0.1
2018-Apr-12 13:27N 26°08' W 080°05'0 0.0
2018-Apr-12 12:57N 26°08' W 080°05'0 0.0
2018-Apr-12 12:27N 26°08' W 080°05'0 0.0
2018-Apr-12 12:00N 26°08' W 080°05'0 0.0
2018-Apr-12 11:30N 26°08' W 080°05'0 0.0
2018-Apr-12 11:00N 26°08' W 080°05'0 0.0
2018-Apr-12 10:30N 26°08' W 080°05'0 0.0
2018-Apr-12 09:59N 26°08' W 080°05'0 0.1
2018-Apr-12 09:29N 26°08' W 080°05'0 0.0
2018-Apr-12 08:59N 26°08' W 080°04'0 0.0
2018-Apr-12 08:29N 26°08' W 080°05'0 0.0
2018-Apr-12 07:59N 26°08' W 080°04'0 0.0
2018-Apr-12 07:29N 26°08' W 080°04'0 0.0
2018-Apr-12 06:59N 26°08' W 080°04'0 0.0
2018-Apr-12 06:29N 26°08' W 080°04'0 0.0
2018-Apr-12 05:59N 26°08' W 080°04'0 0.0
2018-Apr-12 05:29N 26°08' W 080°04'0 0.0
2018-Apr-12 04:59N 26°08' W 080°04'0 0.0
2018-Apr-12 04:29N 26°08' W 080°04'0 0.0
2018-Apr-12 03:59N 26°08' W 080°04'0 0.0
2018-Apr-12 03:29N 26°08' W 080°04'0 0.0
2018-Apr-12 02:59N 26°08' W 080°04'0 0.1
2018-Apr-12 02:29N 26°08' W 080°04'0 0.0
2018-Apr-12 01:56N 26°08' W 080°04'0 0.0
2018-Apr-12 01:29N 26°08' W 080°04'0 0.0
2018-Apr-12 00:56N 26°08' W 080°04'0 0.0
2018-Apr-12 00:29N 26°08' W 080°04'0 0.0
2018-Apr-11 23:59N 26°08' W 080°04'0 0.0
2018-Apr-11 23:29N 26°08' W 080°04'0 0.0
2018-Apr-11 22:59N 26°08' W 080°04'0 0.0
2018-Apr-11 22:29N 26°08' W 080°04'0 0.1
2018-Apr-11 21:59N 26°08' W 080°04'0 0.1
2018-Apr-11 21:26N 26°08' W 080°04'0 0.0
2018-Apr-11 20:59N 26°08' W 080°04'0 0.0
2018-Apr-11 20:29N 26°08' W 080°04'0 0.1
2018-Apr-11 19:59N 26°08' W 080°04'0 0.0
2018-Apr-11 19:29N 26°08' W 080°04'0 0.0
2018-Apr-11 18:59N 26°08' W 080°04'0 0.2
2018-Apr-11 18:20N 26°08' W 080°04'0 0.1
2018-Apr-11 17:59N 26°08' W 080°04'0 0.1
2018-Apr-11 17:29N 26°08' W 080°04'0 0.0
2018-Apr-11 16:59N 26°08' W 080°04'0 0.0
2018-Apr-11 16:29N 26°08' W 080°04'0 0.1
2018-Apr-11 15:59N 26°08' W 080°04'0 0.0
2018-Apr-11 15:29N 26°08' W 080°04'0 0.1
2018-Apr-11 14:59N 26°08' W 080°04'0 0.0
2018-Apr-11 14:17N 26°08' W 080°04'0 0.0
2018-Apr-11 13:50N 26°08' W 080°04'0 0.1
2018-Apr-11 13:20N 26°08' W 080°04'0 0.0
2018-Apr-11 12:50N 26°08' W 080°04'0 0.0
2018-Apr-11 12:26N 26°08' W 080°04'0 0.0
2018-Apr-11 11:50N 26°08' W 080°04'0 0.0
2018-Apr-11 11:20N 26°08' W 080°04'0 0.0
2018-Apr-11 10:53N 26°08' W 080°04'0 0.0
2018-Apr-11 10:23N 26°08' W 080°04'0 0.0
2018-Apr-11 09:53N 26°08' W 080°04'0 0.0
2018-Apr-11 09:19N 26°08' W 080°04'0 0.0
2018-Apr-11 08:58N 26°08' W 080°04'0 0.0
2018-Apr-11 08:22N 26°08' W 080°04'0 0.0
2018-Apr-11 07:52N 26°08' W 080°04'0 0.0
2018-Apr-11 07:22N 26°08' W 080°04'0 0.0
2018-Apr-11 06:58N 26°08' W 080°04'0 0.0
2018-Apr-11 06:22N 26°08' W 080°04'0 0.1
2018-Apr-11 05:52N 26°08' W 080°04'0 0.0
2018-Apr-11 05:22N 26°08' W 080°04'0 0.1
2018-Apr-11 04:58N 26°08' W 080°04'0 0.0
2018-Apr-11 04:28N 26°08' W 080°04'0 0.0
2018-Apr-11 03:58N 26°08' W 080°04'0 0.1
2018-Apr-11 03:28N 26°08' W 080°04'0 0.1
2018-Apr-11 02:58N 26°08' W 080°04'0 0.0
2018-Apr-11 02:28N 26°08' W 080°04'0 0.0
2018-Apr-11 01:58N 26°08' W 080°04'0 0.0
2018-Apr-11 01:28N 26°08' W 080°04'0 0.0
2018-Apr-11 00:55N 26°08' W 080°04'0 0.0
2018-Apr-11 00:28N 26°08' W 080°04'0 0.0
2018-Apr-10 23:58N 26°08' W 080°04'0 0.0
2018-Apr-10 23:25N 26°08' W 080°04'0 0.0
2018-Apr-10 22:58N 26°08' W 080°04'0 0.1
2018-Apr-10 22:28N 26°08' W 080°04'0 0.0
2018-Apr-10 21:58N 26°08' W 080°04'0 0.2
2018-Apr-10 21:28N 26°08' W 080°04'2 3.9
2018-Apr-10 20:59N 26°06' W 080°04'4 8.3
2018-Apr-10 20:29N 26°04' W 080°00'611.2
2018-Apr-10 19:58N 26°01' W 079°55'511.3
2018-Apr-10 19:30N 25°57' W 079°51'611.4
2018-Apr-10 19:00N 25°54' W 079°46'611.2
2018-Apr-10 18:30N 25°50' W 079°41'612.7
2018-Apr-10 18:00N 25°44' W 079°41'612.5
2018-Apr-10 17:30N 25°38' W 079°41'812.1
2018-Apr-10 16:53N 25°30' W 079°41'2012.0
2018-Apr-10 15:15N 25°11' W 079°40'311.4
2018-Apr-10 14:58N 25°07' W 079°40'1712.6
2018-Apr-10 13:37N 24°51' W 079°44'213.2
2018-Apr-10 13:30N 24°49' W 079°44'1711.9
2018-Apr-10 12:04N 24°37' W 079°58'111.7
2018-Apr-10 12:00N 24°37' W 079°59'611.9
2018-Apr-10 11:30N 24°34' W 080°04'812.1
2018-Apr-10 10:50N 24°30' W 080°12'512.4
2018-Apr-10 10:25N 24°27' W 080°16'  
2018-Apr-08 05:30N 23°25' W 090°12'9 8.9
2018-Apr-08 04:32N 23°22' W 090°22'0 8.9
2018-Apr-08 04:30N 23°22' W 090°22'5 9.1
2018-Apr-08 04:00N 23°22' W 090°27'5 9.2
2018-Apr-08 03:30N 23°21' W 090°32'5 9.3
2018-Apr-08 03:00N 23°20' W 090°37'5 9.4
2018-Apr-08 02:30N 23°19' W 090°42'5 9.5
2018-Apr-08 02:00N 23°18' W 090°47'5 9.6
2018-Apr-08 01:30N 23°17' W 090°52'5 9.7
2018-Apr-08 00:58N 23°16' W 090°57'31 9.8
2018-Apr-07 21:51N 23°10' W 091°30'338 7.8
2018-Apr-06 02:35N 19°21' W 095°57'1 8.3
2018-Apr-06 02:29N 19°20' W 095°57'4 8.1
2018-Apr-06 01:59N 19°16' W 095°58'4 8.0
2018-Apr-06 01:30N 19°13' W 096°00'4 8.2
2018-Apr-06 01:00N 19°11' W 096°04'4 7.9
2018-Apr-06 00:30N 19°13' W 096°08'0 0.2
2018-Apr-06 00:00N 19°13' W 096°08'0 0.0
2018-Apr-05 23:30N 19°13' W 096°08'0 0.0
2018-Apr-05 22:57N 19°13' W 096°08'0 0.0
2018-Apr-05 22:30N 19°13' W 096°08'0 0.0
2018-Apr-05 22:00N 19°13' W 096°08'0 0.0
2018-Apr-05 21:24N 19°13' W 096°08'0 0.0
2018-Apr-05 21:00N 19°13' W 096°08'0 0.0
2018-Apr-05 20:30N 19°13' W 096°08'0 0.0
2018-Apr-05 19:57N 19°13' W 096°08'0 0.0
2018-Apr-05 19:27N 19°13' W 096°08'0 0.0
2018-Apr-05 19:00N 19°13' W 096°08'0 0.0
2018-Apr-05 18:27N 19°13' W 096°08'0 0.0
2018-Apr-05 17:57N 19°13' W 096°08'0 0.0
2018-Apr-05 17:21N 19°13' W 096°08'0 0.0
2018-Apr-05 16:56N 19°13' W 096°08'0 0.0
2018-Apr-05 16:26N 19°13' W 096°08'0 0.0
2018-Apr-05 15:57N 19°13' W 096°08'0 0.0
2018-Apr-05 15:26N 19°13' W 096°08'0 0.0
2018-Apr-05 14:56N 19°13' W 096°08'0 0.0
2018-Apr-05 14:29N 19°13' W 096°08'0 0.0
2018-Apr-05 14:01N 19°13' W 096°08'2 3.9
2018-Apr-05 13:28N 19°12' W 096°06'3 7.7
2018-Apr-05 13:00N 19°11' W 096°03'4 7.6
2018-Apr-05 12:30N 19°13' W 095°59'510.3
2018-Apr-05 12:00N 19°14' W 095°54'510.7
2018-Apr-05 11:30N 19°15' W 095°48'  
Track history (hours):
 
Tides and Currents Weather Stations Pressure Air Temp Water Temp Dewpoint Dewpoint Depression Visibility Wind Speed Wind Dir Waves Ship Positions

Scm Elpida

Last reported at 2018-Apr-14 08:12 UTC. Time now 2018-May-27 03:32 UTC.
Position N 25°33' W 079°37'.
Warning: this ship's position is 42 days out of date.

Length 108 m; draft 5 m.

Type: Cargo ship. MMSI: 304188000.

Date/timePositionNaut miles runAvg speedWind from/ knotsBaromVisibWave heightAir tempDewpointWater temp
2018-Apr-14 08:12N 25°33' W 079°37'2 8.3
2018-Apr-14 08:00N 25°35' W 079°37'4 8.2
2018-Apr-14 07:31N 25°39' W 079°38'4 8.1
2018-Apr-14 07:00N 25°43' W 079°39'4 8.1
2018-Apr-14 06:31N 25°47' W 079°40'4 8.0
2018-Apr-14 06:00N 25°51' W 079°42'4 8.8
2018-Apr-14 05:31N 25°53' W 079°45'4 8.9
2018-Apr-14 05:00N 25°56' W 079°49'5 9.3
2018-Apr-14 04:30N 25°59' W 079°54'510.3
2018-Apr-14 03:59N 26°01' W 079°59'510.7
2018-Apr-14 03:31N 26°04' W 080°04'3 6.4
2018-Apr-14 02:59N 26°05' W 080°07'0 0.1
2018-Apr-14 02:29N 26°05' W 080°07'0 0.0
2018-Apr-14 01:59N 26°05' W 080°07'0 0.0
2018-Apr-14 01:29N 26°05' W 080°07'0 0.0
2018-Apr-14 00:59N 26°05' W 080°07'0 0.0
2018-Apr-14 00:29N 26°05' W 080°07'0 0.0
2018-Apr-13 23:59N 26°05' W 080°07'0 0.0
2018-Apr-13 23:29N 26°05' W 080°07'0 0.0
2018-Apr-13 22:59N 26°05' W 080°07'0 0.0
2018-Apr-13 22:29N 26°05' W 080°07'0 0.0
2018-Apr-13 21:59N 26°05' W 080°07'0 0.0
2018-Apr-13 21:29N 26°05' W 080°07'0 0.0
2018-Apr-13 20:59N 26°05' W 080°07'0 0.0
2018-Apr-13 20:29N 26°05' W 080°07'0 0.0
2018-Apr-13 19:59N 26°05' W 080°07'0 0.0
2018-Apr-13 19:29N 26°05' W 080°07'0 0.0
2018-Apr-13 18:59N 26°05' W 080°07'0 0.0
2018-Apr-13 18:29N 26°05' W 080°07'0 0.0
2018-Apr-13 17:59N 26°05' W 080°07'0 0.0
2018-Apr-13 17:29N 26°05' W 080°07'0 0.0
2018-Apr-13 16:59N 26°05' W 080°07'0 0.0
2018-Apr-13 16:29N 26°05' W 080°07'0 0.0
2018-Apr-13 15:59N 26°05' W 080°07'0 0.0
2018-Apr-13 15:29N 26°05' W 080°07'0 0.0
2018-Apr-13 14:59N 26°05' W 080°07'0 0.0
2018-Apr-13 14:29N 26°05' W 080°07'0 0.0
2018-Apr-13 13:59N 26°05' W 080°07'0 0.0
2018-Apr-13 13:29N 26°05' W 080°07'0 0.5
2018-Apr-13 13:00N 26°05' W 080°07'3 6.9
2018-Apr-13 12:30N 26°06' W 080°03'2 3.8
2018-Apr-13 12:00N 26°08' W 080°04'1 2.1
2018-Apr-13 11:30N 26°08' W 080°05'0 0.0
2018-Apr-13 11:00N 26°08' W 080°05'0 0.0
2018-Apr-13 10:30N 26°08' W 080°05'0 0.0
2018-Apr-13 10:00N 26°08' W 080°05'0 0.1
2018-Apr-13 09:30N 26°08' W 080°05'0 0.0
2018-Apr-13 09:00N 26°08' W 080°05'0 0.0
2018-Apr-13 08:30N 26°08' W 080°05'0 0.1
2018-Apr-13 08:00N 26°08' W 080°05'0 0.0
2018-Apr-13 07:30N 26°08' W 080°05'0 0.0
2018-Apr-13 07:00N 26°08' W 080°05'0 0.0
2018-Apr-13 06:30N 26°08' W 080°05'0 0.0
2018-Apr-13 06:00N 26°08' W 080°05'0 0.0
2018-Apr-13 05:30N 26°08' W 080°05'0 0.0
2018-Apr-13 05:00N 26°08' W 080°05'0 0.0
2018-Apr-13 04:30N 26°08' W 080°05'0 0.0
2018-Apr-13 04:00N 26°08' W 080°05'0 0.0
2018-Apr-13 03:30N 26°08' W 080°05'0 0.0
2018-Apr-13 03:00N 26°08' W 080°05'0 0.0
2018-Apr-13 02:30N 26°08' W 080°05'0 0.0
2018-Apr-13 02:00N 26°08' W 080°05'0 0.0
2018-Apr-13 01:30N 26°08' W 080°05'0 0.0
2018-Apr-13 01:00N 26°08' W 080°05'0 0.0
2018-Apr-13 00:30N 26°08' W 080°05'0 0.1
2018-Apr-13 00:00N 26°08' W 080°05'0 0.0
2018-Apr-12 23:30N 26°08' W 080°05'0 0.1
2018-Apr-12 23:00N 26°08' W 080°05'0 0.0
2018-Apr-12 22:30N 26°08' W 080°05'0 0.0
2018-Apr-12 22:00N 26°08' W 080°05'0 0.0
2018-Apr-12 21:30N 26°08' W 080°05'0 0.0
2018-Apr-12 21:00N 26°08' W 080°05'0 0.1
2018-Apr-12 20:30N 26°08' W 080°05'0 0.0
2018-Apr-12 20:00N 26°08' W 080°05'0 0.0
2018-Apr-12 19:30N 26°08' W 080°05'0 0.0
2018-Apr-12 19:00N 26°08' W 080°05'0 0.0
2018-Apr-12 18:30N 26°08' W 080°05'0 0.0
2018-Apr-12 18:00N 26°08' W 080°05'0 0.0
2018-Apr-12 17:30N 26°08' W 080°05'0 0.0
2018-Apr-12 17:00N 26°08' W 080°05'0 0.0
2018-Apr-12 16:30N 26°08' W 080°05'0 0.0
2018-Apr-12 16:00N 26°08' W 080°05'0 0.0
2018-Apr-12 15:30N 26°08' W 080°05'0 0.0
2018-Apr-12 15:00N 26°08' W 080°05'0 0.0
2018-Apr-12 14:30N 26°08' W 080°05'0 0.0
2018-Apr-12 14:00N 26°08' W 080°05'0 0.1
2018-Apr-12 13:27N 26°08' W 080°05'0 0.0
2018-Apr-12 12:57N 26°08' W 080°05'0 0.0
2018-Apr-12 12:27N 26°08' W 080°05'0 0.0
2018-Apr-12 12:00N 26°08' W 080°05'0 0.0
2018-Apr-12 11:30N 26°08' W 080°05'0 0.0
2018-Apr-12 11:00N 26°08' W 080°05'0 0.0
2018-Apr-12 10:30N 26°08' W 080°05'0 0.0
2018-Apr-12 09:59N 26°08' W 080°05'0 0.1
2018-Apr-12 09:29N 26°08' W 080°05'0 0.0
2018-Apr-12 08:59N 26°08' W 080°04'0 0.0
2018-Apr-12 08:29N 26°08' W 080°05'0 0.0
2018-Apr-12 07:59N 26°08' W 080°04'0 0.0
2018-Apr-12 07:29N 26°08' W 080°04'0 0.0
2018-Apr-12 06:59N 26°08' W 080°04'0 0.0
2018-Apr-12 06:29N 26°08' W 080°04'0 0.0
2018-Apr-12 05:59N 26°08' W 080°04'0 0.0
2018-Apr-12 05:29N 26°08' W 080°04'0 0.0
2018-Apr-12 04:59N 26°08' W 080°04'0 0.0
2018-Apr-12 04:29N 26°08' W 080°04'0 0.0
2018-Apr-12 03:59N 26°08' W 080°04'0 0.0
2018-Apr-12 03:29N 26°08' W 080°04'0 0.0
2018-Apr-12 02:59N 26°08' W 080°04'0 0.1
2018-Apr-12 02:29N 26°08' W 080°04'0 0.0
2018-Apr-12 01:56N 26°08' W 080°04'0 0.0
2018-Apr-12 01:29N 26°08' W 080°04'0 0.0
2018-Apr-12 00:56N 26°08' W 080°04'0 0.0
2018-Apr-12 00:29N 26°08' W 080°04'0 0.0
2018-Apr-11 23:59N 26°08' W 080°04'0 0.0
2018-Apr-11 23:29N 26°08' W 080°04'0 0.0
2018-Apr-11 22:59N 26°08' W 080°04'0 0.0
2018-Apr-11 22:29N 26°08' W 080°04'0 0.1
2018-Apr-11 21:59N 26°08' W 080°04'0 0.1
2018-Apr-11 21:26N 26°08' W 080°04'0 0.0
2018-Apr-11 20:59N 26°08' W 080°04'0 0.0
2018-Apr-11 20:29N 26°08' W 080°04'0 0.1
2018-Apr-11 19:59N 26°08' W 080°04'0 0.0
2018-Apr-11 19:29N 26°08' W 080°04'0 0.0
2018-Apr-11 18:59N 26°08' W 080°04'0 0.2
2018-Apr-11 18:20N 26°08' W 080°04'0 0.1
2018-Apr-11 17:59N 26°08' W 080°04'0 0.1
2018-Apr-11 17:29N 26°08' W 080°04'0 0.0
2018-Apr-11 16:59N 26°08' W 080°04'0 0.0
2018-Apr-11 16:29N 26°08' W 080°04'0 0.1
2018-Apr-11 15:59N 26°08' W 080°04'0 0.0
2018-Apr-11 15:29N 26°08' W 080°04'0 0.1
2018-Apr-11 14:59N 26°08' W 080°04'0 0.0
2018-Apr-11 14:17N 26°08' W 080°04'0 0.0
2018-Apr-11 13:50N 26°08' W 080°04'0 0.1
2018-Apr-11 13:20N 26°08' W 080°04'0 0.0
2018-Apr-11 12:50N 26°08' W 080°04'0 0.0
2018-Apr-11 12:26N 26°08' W 080°04'0 0.0
2018-Apr-11 11:50N 26°08' W 080°04'0 0.0
2018-Apr-11 11:20N 26°08' W 080°04'0 0.0
2018-Apr-11 10:53N 26°08' W 080°04'0 0.0
2018-Apr-11 10:23N 26°08' W 080°04'0 0.0
2018-Apr-11 09:53N 26°08' W 080°04'0 0.0
2018-Apr-11 09:19N 26°08' W 080°04'0 0.0
2018-Apr-11 08:58N 26°08' W 080°04'0 0.0
2018-Apr-11 08:22N 26°08' W 080°04'0 0.0
2018-Apr-11 07:52N 26°08' W 080°04'0 0.0
2018-Apr-11 07:22N 26°08' W 080°04'0 0.0
2018-Apr-11 06:58N 26°08' W 080°04'0 0.0
2018-Apr-11 06:22N 26°08' W 080°04'0 0.1
2018-Apr-11 05:52N 26°08' W 080°04'0 0.0
2018-Apr-11 05:22N 26°08' W 080°04'0 0.1
2018-Apr-11 04:58N 26°08' W 080°04'0 0.0
2018-Apr-11 04:28N 26°08' W 080°04'0 0.0
2018-Apr-11 03:58N 26°08' W 080°04'0 0.1
2018-Apr-11 03:28N 26°08' W 080°04'0 0.1
2018-Apr-11 02:58N 26°08' W 080°04'0 0.0
2018-Apr-11 02:28N 26°08' W 080°04'0 0.0
2018-Apr-11 01:58N 26°08' W 080°04'0 0.0
2018-Apr-11 01:28N 26°08' W 080°04'0 0.0
2018-Apr-11 00:55N 26°08' W 080°04'0 0.0
2018-Apr-11 00:28N 26°08' W 080°04'0 0.0
2018-Apr-10 23:58N 26°08' W 080°04'0 0.0
2018-Apr-10 23:25N 26°08' W 080°04'0 0.0
2018-Apr-10 22:58N 26°08' W 080°04'0 0.1
2018-Apr-10 22:28N 26°08' W 080°04'0 0.0
2018-Apr-10 21:58N 26°08' W 080°04'0 0.2
2018-Apr-10 21:28N 26°08' W 080°04'2 3.9
2018-Apr-10 20:59N 26°06' W 080°04'4 8.3
2018-Apr-10 20:29N 26°04' W 080°00'611.2
2018-Apr-10 19:58N 26°01' W 079°55'511.3
2018-Apr-10 19:30N 25°57' W 079°51'611.4
2018-Apr-10 19:00N 25°54' W 079°46'611.2
2018-Apr-10 18:30N 25°50' W 079°41'612.7
2018-Apr-10 18:00N 25°44' W 079°41'612.5
2018-Apr-10 17:30N 25°38' W 079°41'812.1
2018-Apr-10 16:53N 25°30' W 079°41'2012.0
2018-Apr-10 15:15N 25°11' W 079°40'311.4
2018-Apr-10 14:58N 25°07' W 079°40'1712.6
2018-Apr-10 13:37N 24°51' W 079°44'213.2
2018-Apr-10 13:30N 24°49' W 079°44'1711.9
2018-Apr-10 12:04N 24°37' W 079°58'111.7
2018-Apr-10 12:00N 24°37' W 079°59'611.9
2018-Apr-10 11:30N 24°34' W 080°04'812.1
2018-Apr-10 10:50N 24°30' W 080°12'512.4
2018-Apr-10 10:25N 24°27' W 080°16'  
2018-Apr-08 05:30N 23°25' W 090°12'9 8.9
2018-Apr-08 04:32N 23°22' W 090°22'0 8.9
2018-Apr-08 04:30N 23°22' W 090°22'5 9.1
2018-Apr-08 04:00N 23°22' W 090°27'5 9.2
2018-Apr-08 03:30N 23°21' W 090°32'5 9.3
2018-Apr-08 03:00N 23°20' W 090°37'5 9.4
2018-Apr-08 02:30N 23°19' W 090°42'5 9.5
2018-Apr-08 02:00N 23°18' W 090°47'5 9.6
2018-Apr-08 01:30N 23°17' W 090°52'5 9.7
2018-Apr-08 00:58N 23°16' W 090°57'31 9.8
2018-Apr-07 21:51N 23°10' W 091°30'338 7.8
2018-Apr-06 02:35N 19°21' W 095°57'1 8.3
2018-Apr-06 02:29N 19°20' W 095°57'4 8.1
2018-Apr-06 01:59N 19°16' W 095°58'4 8.0
2018-Apr-06 01:30N 19°13' W 096°00'4 8.2
2018-Apr-06 01:00N 19°11' W 096°04'4 7.9
2018-Apr-06 00:30N 19°13' W 096°08'0 0.2
2018-Apr-06 00:00N 19°13' W 096°08'0 0.0
2018-Apr-05 23:30N 19°13' W 096°08'0 0.0
2018-Apr-05 22:57N 19°13' W 096°08'0 0.0
2018-Apr-05 22:30N 19°13' W 096°08'0 0.0
2018-Apr-05 22:00N 19°13' W 096°08'0 0.0
2018-Apr-05 21:24N 19°13' W 096°08'0 0.0
2018-Apr-05 21:00N 19°13' W 096°08'0 0.0
2018-Apr-05 20:30N 19°13' W 096°08'0 0.0
2018-Apr-05 19:57N 19°13' W 096°08'0 0.0
2018-Apr-05 19:27N 19°13' W 096°08'0 0.0
2018-Apr-05 19:00N 19°13' W 096°08'0 0.0
2018-Apr-05 18:27N 19°13' W 096°08'0 0.0
2018-Apr-05 17:57N 19°13' W 096°08'0 0.0
2018-Apr-05 17:21N 19°13' W 096°08'0 0.0
2018-Apr-05 16:56N 19°13' W 096°08'0 0.0
2018-Apr-05 16:26N 19°13' W 096°08'0 0.0
2018-Apr-05 15:57N 19°13' W 096°08'0 0.0
2018-Apr-05 15:26N 19°13' W 096°08'0 0.0
2018-Apr-05 14:56N 19°13' W 096°08'0 0.0
2018-Apr-05 14:29N 19°13' W 096°08'0 0.0
2018-Apr-05 14:01N 19°13' W 096°08'2 3.9
2018-Apr-05 13:28N 19°12' W 096°06'3 7.7
2018-Apr-05 13:00N 19°11' W 096°03'4 7.6
2018-Apr-05 12:30N 19°13' W 095°59'510.3
2018-Apr-05 12:00N 19°14' W 095°54'510.7
2018-Apr-05 11:30N 19°15' W 095°48'  

Dump ship's entire track history